Time,TemperatureF,DewpointF,PressureIn,WindDirection,WindDirectionDegrees,WindSpeedMPH,WindSpeedGustMPH,Humidity,HourlyPrecipIn,Conditions,Clouds,dailyrainin,SoftwareType,DateUTC
2013-03-09 00:09:00,16.9,15.0,29.90,NNE,12,1.0,1.0,91,0.00,,,0.00,weatherlink.com 1.10,2013-03-09 07:09:00,
2013-03-09 00:24:00,17.3,15.0,29.91,West,266,0.0,0.0,91,0.00,,,0.00,weatherlink.com 1.10,2013-03-09 07:24:00,
2013-03-09 00:39:00,17.5,15.0,29.92,South,191,0.0,0.0,91,0.00,,,0.00,weatherlink.com 1.10,2013-03-09 07:39:00,
2013-03-09 01:09:00,18.5,17.0,29.91,West,268,0.0,0.0,92,0.00,,,0.00,weatherlink.com 1.10,2013-03-09 08:09:00,
2013-03-09 01:24:00,18.5,17.0,29.90,ENE,76,1.0,2.0,92,0.00,,,0.00,weatherlink.com 1.10,2013-03-09 08:24:00,
2013-03-09 01:39:00,18.4,16.0,29.89,ENE,75,0.0,0.0,91,0.00,,,0.00,weatherlink.com 1.10,2013-03-09 08:39:00,
2013-03-09 01:54:00,17.8,16.0,29.88,West,264,0.0,0.0,91,0.00,,,0.00,weatherlink.com 1.10,2013-03-09 08:54:00,
2013-03-09 02:09:00,16.7,15.0,29.87,NNW,345,0.0,0.0,91,0.00,,,0.00,weatherlink.com 1.10,2013-03-09 09:09:00,
2013-03-09 02:24:00,17.0,15.0,29.88,WNW,285,0.0,0.0,91,0.00,,,0.00,weatherlink.com 1.10,2013-03-09 09:24:00,
2013-03-09 02:39:00,17.6,16.0,29.86,WNW,296,1.0,3.0,92,0.00,,,0.00,weatherlink.com 1.10,2013-03-09 09:39:00,
2013-03-09 02:54:00,18.6,16.0,29.86,WNW,293,0.0,4.0,91,0.00,,,0.00,weatherlink.com 1.10,2013-03-09 09:54:00,
2013-03-09 03:09:00,17.3,15.0,29.85,East,86,2.0,3.0,91,0.00,,,0.00,weatherlink.com 1.10,2013-03-09 10:09:00,
2013-03-09 03:24:00,17.6,16.0,29.84,WSW,246,0.0,0.0,91,0.00,,,0.00,weatherlink.com 1.10,2013-03-09 10:24:00,
2013-03-09 03:39:00,17.3,15.0,29.83,WNW,292,0.0,0.0,91,0.00,,,0.00,weatherlink.com 1.10,2013-03-09 10:39:00,
2013-03-09 03:54:00,17.9,16.0,29.83,WNW,302,0.0,0.0,92,0.00,,,0.00,weatherlink.com 1.10,2013-03-09 10:54:00,
2013-03-09 04:09:00,16.3,14.0,29.83,NNE,12,0.0,0.0,90,0.00,,,0.00,weatherlink.com 1.10,2013-03-09 11:09:00,
2013-03-09 04:24:00,16.4,14.0,29.83,NNW,347,0.0,1.0,91,0.00,,,0.00,weatherlink.com 1.10,2013-03-09 11:24:00,
2013-03-09 04:39:00,16.2,14.0,29.84,West,278,0.0,0.0,90,0.00,,,0.00,weatherlink.com 1.10,2013-03-09 11:39:00,
2013-03-09 04:54:00,16.0,14.0,29.85,East,91,1.0,3.0,91,0.00,,,0.00,weatherlink.com 1.10,2013-03-09 11:54:00,
2013-03-09 05:09:00,16.4,14.0,29.85,WSW,238,0.0,0.0,91,0.00,,,0.00,weatherlink.com 1.10,2013-03-09 12:09:00,
2013-03-09 05:24:00,16.7,15.0,29.85,NNW,330,0.0,0.0,92,0.00,,,0.00,weatherlink.com 1.10,2013-03-09 12:24:00,
2013-03-09 05:39:00,18.4,16.0,29.86,West,274,0.0,3.0,90,0.00,,,0.00,weatherlink.com 1.10,2013-03-09 12:39:00,
2013-03-09 05:54:00,18.1,15.0,29.86,NNE,20,2.0,4.0,89,0.00,,,0.00,weatherlink.com 1.10,2013-03-09 12:54:00,
2013-03-09 06:09:00,17.8,15.0,29.86,North,354,0.0,0.0,87,0.00,,,0.00,weatherlink.com 1.10,2013-03-09 13:09:00,
2013-03-09 06:24:00,17.2,14.0,29.86,NNE,32,1.0,2.0,86,0.00,,,0.00,weatherlink.com 1.10,2013-03-09 13:24:00,
2013-03-09 06:39:00,16.4,13.0,29.87,West,269,0.0,1.0,87,0.00,,,0.00,weatherlink.com 1.10,2013-03-09 13:39:00,
2013-03-09 06:54:00,15.6,12.0,29.86,NNW,328,0.0,1.0,86,0.00,,,0.00,weatherlink.com 1.10,2013-03-09 13:54:00,
2013-03-09 07:09:00,13.0,10.0,29.86,NNW,344,1.0,2.0,87,0.00,,,0.00,weatherlink.com 1.10,2013-03-09 14:09:00,
2013-03-09 07:24:00,12.5,10.0,29.88,NW,325,1.0,1.0,88,0.00,,,0.00,weatherlink.com 1.10,2013-03-09 14:24:00,
2013-03-09 07:40:00,11.8,9.0,29.89,WSW,252,0.0,0.0,88,0.00,,,0.00,weatherlink.com 1.10,2013-03-09 14:40:00,
2013-03-09 07:55:00,12.1,9.0,29.88,SE,126,0.0,0.0,88,0.00,,,0.00,weatherlink.com 1.10,2013-03-09 14:55:00,
2013-03-09 08:10:00,13.6,10.0,29.88,WNW,297,0.0,0.0,84,0.00,,,0.00,weatherlink.com 1.10,2013-03-09 15:10:00,
2013-03-09 08:25:00,14.2,10.0,29.88,WNW,291,0.0,0.0,83,0.00,,,0.00,weatherlink.com 1.10,2013-03-09 15:25:00,
2013-03-09 08:40:00,14.7,11.0,29.89,WNW,285,0.0,0.0,85,0.00,,,0.00,weatherlink.com 1.10,2013-03-09 15:40:00,
2013-03-09 08:55:00,16.5,12.0,29.88,NNW,340,0.0,0.0,82,0.00,,,0.00,weatherlink.com 1.10,2013-03-09 15:55:00,
2013-03-09 09:10:00,18.5,15.0,29.88,NNW,338,0.0,0.0,84,0.00,,,0.00,weatherlink.com 1.10,2013-03-09 16:10:00,
2013-03-09 09:25:00,18.7,13.0,29.88,NW,322,0.0,0.0,78,0.00,,,0.00,weatherlink.com 1.10,2013-03-09 16:25:00,
2013-03-09 09:40:00,21.6,16.0,29.87,NW,322,0.0,0.0,78,0.00,,,0.00,weatherlink.com 1.10,2013-03-09 16:40:00,
2013-03-09 09:55:00,25.0,15.0,29.87,NW,322,0.0,0.0,66,0.00,,,0.00,weatherlink.com 1.10,2013-03-09 16:55:00,
2013-03-09 10:10:00,22.0,14.0,29.87,SE,136,0.0,0.0,72,0.00,,,0.00,weatherlink.com 1.10,2013-03-09 17:10:00,
2013-03-09 10:25:00,24.0,14.0,29.86,ESE,102,3.0,3.0,66,0.00,,,0.00,weatherlink.com 1.10,2013-03-09 17:25:00,
2013-03-09 10:40:00,29.2,18.0,29.85,ESE,108,0.0,1.0,63,0.00,,,0.00,weatherlink.com 1.10,2013-03-09 17:40:00,
2013-03-09 10:55:00,27.5,14.0,29.85,SE,141,2.0,6.0,56,0.00,,,0.00,weatherlink.com 1.10,2013-03-09 17:55:00,
2013-03-09 11:10:00,25.9,13.0,29.84,SE,140,4.0,8.0,59,0.00,,,0.00,weatherlink.com 1.10,2013-03-09 18:10:00,
2013-03-09 11:25:00,25.9,14.0,29.84,SSE,148,5.0,8.0,62,0.00,,,0.00,weatherlink.com 1.10,2013-03-09 18:25:00,
2013-03-09 11:40:00,27.1,14.0,29.84,SE,144,5.0,6.0,59,0.00,,,0.00,weatherlink.com 1.10,2013-03-09 18:40:00,
2013-03-09 11:55:00,28.3,15.0,29.85,ESE,110,2.0,5.0,57,0.00,,,0.00,weatherlink.com 1.10,2013-03-09 18:55:00,
2013-03-09 12:10:00,28.2,14.0,29.84,ENE,73,2.0,4.0,56,0.00,,,0.00,weatherlink.com 1.10,2013-03-09 19:10:00,
2013-03-09 12:25:00,27.3,17.0,29.85,NNE,25,1.0,3.0,65,0.00,,,0.00,weatherlink.com 1.10,2013-03-09 19:25:00,
2013-03-09 12:40:00,29.0,18.0,29.84,West,277,0.0,2.0,64,0.00,,,0.00,weatherlink.com 1.10,2013-03-09 19:40:00,
2013-03-09 12:55:00,27.8,20.0,29.84,NW,307,0.0,0.0,72,0.00,,,0.00,weatherlink.com 1.10,2013-03-09 19:55:00,
2013-03-09 13:10:00,29.5,19.0,29.83,NE,53,0.0,1.0,66,0.00,,,0.00,weatherlink.com 1.10,2013-03-09 20:10:00,
2013-03-09 13:25:00,26.8,20.0,29.83,SSW,195,3.0,4.0,76,0.00,,,0.00,weatherlink.com 1.10,2013-03-09 20:25:00,
2013-03-09 13:40:00,27.7,19.0,29.83,SE,132,5.0,6.0,71,0.00,,,0.00,weatherlink.com 1.10,2013-03-09 20:40:00,
2013-03-09 13:55:00,25.4,19.0,29.85,SE,137,5.0,7.0,77,0.00,,,0.00,weatherlink.com 1.10,2013-03-09 20:55:00,
2013-03-09 14:10:00,24.5,19.0,29.85,SE,142,6.0,7.0,80,0.00,,,0.00,weatherlink.com 1.10,2013-03-09 21:10:00,
2013-03-09 14:25:00,24.4,19.0,29.86,SE,136,4.0,6.0,79,0.00,,,0.00,weatherlink.com 1.10,2013-03-09 21:25:00,
2013-03-09 14:40:00,24.3,18.0,29.86,SE,142,6.0,6.0,78,0.00,,,0.00,weatherlink.com 1.10,2013-03-09 21:40:00,
2013-03-09 14:55:00,24.4,19.0,29.88,SE,136,5.0,6.0,80,0.00,,,0.00,weatherlink.com 1.10,2013-03-09 21:55:00,
2013-03-09 15:10:00,24.7,19.0,29.88,SSE,152,4.0,6.0,80,0.00,,,0.00,weatherlink.com 1.10,2013-03-09 22:10:00,
2013-03-09 15:25:00,25.4,20.0,29.89,SW,235,4.0,7.0,79,0.00,,,0.00,weatherlink.com 1.10,2013-03-09 22:25:00,
2013-03-09 15:41:00,26.5,19.0,29.90,SSE,153,4.0,9.0,74,0.00,,,0.00,weatherlink.com 1.10,2013-03-09 22:41:00,
2013-03-09 15:55:00,28.2,20.0,29.91,South,188,3.0,4.0,70,0.00,,,0.00,weatherlink.com 1.10,2013-03-09 22:55:00,
2013-03-09 16:11:00,27.9,16.0,29.91,North,6,6.0,8.0,61,0.00,,,0.00,weatherlink.com 1.10,2013-03-09 23:11:00,
2013-03-09 16:25:00,27.2,17.0,29.92,NNW,337,7.0,10.0,65,0.00,,,0.00,weatherlink.com 1.10,2013-03-09 23:25:00,
2013-03-09 16:40:00,26.6,15.0,29.93,NW,319,13.0,13.0,62,0.00,,,0.00,weatherlink.com 1.10,2013-03-09 23:40:00,
2013-03-09 16:55:00,26.3,14.0,29.94,NW,312,7.0,13.0,61,0.00,,,0.00,weatherlink.com 1.10,2013-03-09 23:55:00,
2013-03-09 17:10:00,25.8,16.0,29.95,NNW,333,5.0,11.0,66,0.00,,,0.00,weatherlink.com 1.10,2013-03-10 00:10:00,
2013-03-09 17:25:00,25.9,16.0,29.97,NNW,346,6.0,10.0,65,0.00,,,0.00,weatherlink.com 1.10,2013-03-10 00:25:00,
2013-03-09 17:40:00,25.3,16.0,29.98,NNW,346,2.0,8.0,67,0.00,,,0.00,weatherlink.com 1.10,2013-03-10 00:40:00,
2013-03-09 17:55:00,24.9,15.0,29.99,NNW,342,2.0,5.0,67,0.00,,,0.00,weatherlink.com 1.10,2013-03-10 00:55:00,
2013-03-09 18:11:00,24.7,15.0,30.00,NW,325,3.0,6.0,67,0.00,,,0.00,weatherlink.com 1.10,2013-03-10 01:11:00,
2013-03-09 18:25:00,24.3,15.0,30.02,WNW,297,1.0,8.0,67,0.00,,,0.00,weatherlink.com 1.10,2013-03-10 01:25:00,
2013-03-09 18:40:00,24.2,15.0,30.03,WNW,288,3.0,10.0,67,0.00,,,0.00,weatherlink.com 1.10,2013-03-10 01:40:00,
2013-03-09 18:56:00,23.6,15.0,30.04,WNW,294,0.0,7.0,69,0.00,,,0.00,weatherlink.com 1.10,2013-03-10 01:56:00,
2013-03-09 19:11:00,23.1,15.0,30.05,WNW,296,1.0,5.0,71,0.00,,,0.00,weatherlink.com 1.10,2013-03-10 02:11:00,
2013-03-09 19:26:00,21.7,14.0,30.06,West,270,0.0,2.0,73,0.00,,,0.00,weatherlink.com 1.10,2013-03-10 02:26:00,
2013-03-09 19:41:00,20.9,15.0,30.07,WSW,257,3.0,5.0,77,0.00,,,0.00,weatherlink.com 1.10,2013-03-10 02:41:00,
2013-03-09 19:56:00,20.3,14.0,30.07,NE,37,0.0,5.0,75,0.00,,,0.00,weatherlink.com 1.10,2013-03-10 02:56:00,
2013-03-09 20:11:00,18.9,13.0,30.08,West,266,0.0,2.0,76,0.00,,,0.00,weatherlink.com 1.10,2013-03-10 03:11:00,
2013-03-09 20:26:00,18.7,12.0,30.09,NNE,16,1.0,4.0,76,0.00,,,0.00,weatherlink.com 1.10,2013-03-10 03:26:00,
2013-03-09 20:41:00,16.5,11.0,30.10,North,356,3.0,4.0,77,0.00,,,0.00,weatherlink.com 1.10,2013-03-10 03:41:00,
2013-03-09 20:56:00,17.7,11.0,30.11,NNW,339,4.0,8.0,75,0.00,,,0.00,weatherlink.com 1.10,2013-03-10 03:56:00,
2013-03-09 21:11:00,18.8,12.0,30.12,NNW,327,6.0,8.0,73,0.00,,,0.00,weatherlink.com 1.10,2013-03-10 04:11:00,
2013-03-09 21:26:00,15.3,9.0,30.13,NNW,334,9.0,10.0,76,0.00,,,0.00,weatherlink.com 1.10,2013-03-10 04:26:00,
2013-03-09 21:41:00,13.5,8.0,30.14,West,280,4.0,7.0,80,0.00,,,0.00,weatherlink.com 1.10,2013-03-10 04:41:00,
2013-03-09 21:56:00,12.4,7.0,30.14,WNW,302,2.0,5.0,80,0.00,,,0.00,weatherlink.com 1.10,2013-03-10 04:56:00,
2013-03-09 22:11:00,12.0,8.0,30.15,West,278,2.0,8.0,82,0.00,,,0.00,weatherlink.com 1.10,2013-03-10 05:11:00,
2013-03-09 22:26:00,12.5,8.0,30.16,WSW,249,1.0,7.0,82,0.00,,,0.00,weatherlink.com 1.10,2013-03-10 05:26:00,
2013-03-09 22:41:00,11.0,7.0,30.16,NW,309,4.0,4.0,84,0.00,,,0.00,weatherlink.com 1.10,2013-03-10 05:41:00,
2013-03-09 22:56:00,12.0,8.0,30.16,North,353,0.0,3.0,82,0.00,,,0.00,weatherlink.com 1.10,2013-03-10 05:56:00,
2013-03-09 23:11:00,11.1,7.0,30.17,North,1,3.0,4.0,82,0.00,,,0.00,weatherlink.com 1.10,2013-03-10 06:11:00,
2013-03-09 23:26:00,10.4,6.0,30.18,NW,322,1.0,4.0,83,0.00,,,0.00,weatherlink.com 1.10,2013-03-10 06:26:00,
2013-03-09 23:41:00,8.3,3.0,30.19,NE,38,4.0,7.0,80,0.00,,,0.00,weatherlink.com 1.10,2013-03-10 06:41:00,
2013-03-09 23:56:00,9.8,6.0,30.19,NE,52,0.0,0.0,85,0.00,,,0.00,weatherlink.com 1.10,2013-03-10 06:56:00,